sensor_id;sensor_type;location;lat;lon;timestamp;pressure;altitude;pressure_sealevel;temperature;humidity
24013;BME280;12220;50.194;18.948;2023-12-14T00:00:52;100512.27;;;5.80;82.67
24013;BME280;12220;50.194;18.948;2023-12-14T00:02:58;100504.13;;;5.80;82.67
24013;BME280;12220;50.194;18.948;2023-12-14T00:05:05;100502.36;;;5.79;82.65
24013;BME280;12220;50.194;18.948;2023-12-14T00:07:06;100514.13;;;5.80;82.66
24013;BME280;12220;50.194;18.948;2023-12-14T00:09:07;100515.95;;;5.79;82.67
24013;BME280;12220;50.194;18.948;2023-12-14T00:11:12;100520.44;;;5.80;82.69
24013;BME280;12220;50.194;18.948;2023-12-14T00:13:19;100520.44;;;5.80;82.72
24013;BME280;12220;50.194;18.948;2023-12-14T00:15:21;100526.73;;;5.81;82.76
24013;BME280;12220;50.194;18.948;2023-12-14T00:17:22;100528.59;;;5.80;82.70
24013;BME280;12220;50.194;18.948;2023-12-14T00:19:24;100532.25;;;5.79;82.74
24013;BME280;12220;50.194;18.948;2023-12-14T00:21:34;100525.95;;;5.79;82.55
24013;BME280;12220;50.194;18.948;2023-12-14T00:23:38;100542.16;;;5.80;82.88
24013;BME280;12220;50.194;18.948;2023-12-14T00:25:40;100541.13;;;5.83;82.89
24013;BME280;12220;50.194;18.948;2023-12-14T00:27:41;100548.30;;;5.84;82.89
24013;BME280;12220;50.194;18.948;2023-12-14T00:29:49;100551.83;;;5.86;82.79
24013;BME280;12220;50.194;18.948;2023-12-14T00:31:53;100558.13;;;5.86;82.73
24013;BME280;12220;50.194;18.948;2023-12-14T00:33:54;100558.13;;;5.86;82.73
24013;BME280;12220;50.194;18.948;2023-12-14T00:35:56;100568.05;;;5.87;82.76
24013;BME280;12220;50.194;18.948;2023-12-14T00:38:04;100558.13;;;5.86;82.78
24013;BME280;12220;50.194;18.948;2023-12-14T00:40:06;100568.92;;;5.88;82.81
24013;BME280;12220;50.194;18.948;2023-12-14T00:42:08;100573.41;;;5.89;82.77
24013;BME280;12220;50.194;18.948;2023-12-14T00:44:10;100580.61;;;5.90;82.70
24013;BME280;12220;50.194;18.948;2023-12-14T00:46:19;100579.71;;;5.89;82.68
24013;BME280;12220;50.194;18.948;2023-12-14T00:48:21;100590.59;;;5.89;82.69
24013;BME280;12220;50.194;18.948;2023-12-14T00:50:22;100590.59;;;5.89;82.67
24013;BME280;12220;50.194;18.948;2023-12-14T00:52:23;100586.05;;;5.90;82.64
24013;BME280;12220;50.194;18.948;2023-12-14T00:54:37;100589.71;;;5.89;82.65
24013;BME280;12220;50.194;18.948;2023-12-14T00:56:38;100587.86;;;5.89;82.67
24013;BME280;12220;50.194;18.948;2023-12-14T00:58:40;100586.05;;;5.90;82.64
24013;BME280;12220;50.194;18.948;2023-12-14T01:00:41;100590.41;;;5.92;82.62
24013;BME280;12220;50.194;18.948;2023-12-14T01:02:49;100594.11;;;5.91;82.62
24013;BME280;12220;50.194;18.948;2023-12-14T01:04:51;100598.56;;;5.92;82.52
24013;BME280;12220;50.194;18.948;2023-12-14T01:06:52;100592.34;;;5.90;82.34
24013;BME280;12220;50.194;18.948;2023-12-14T01:08:53;100599.70;;;5.88;82.21
24013;BME280;12220;50.194;18.948;2023-12-14T01:11:05;100598.81;;;5.88;82.26
24013;BME280;12220;50.194;18.948;2023-12-14T01:13:06;100586.34;;;5.84;82.37
24013;BME280;12220;50.194;18.948;2023-12-14T01:15:09;100590.05;;;5.83;82.40
24013;BME280;12220;50.194;18.948;2023-12-14T01:17:10;100597.22;;;5.84;82.46
24013;BME280;12220;50.194;18.948;2023-12-14T01:19:20;100605.45;;;5.82;82.43
24013;BME280;12220;50.194;18.948;2023-12-14T01:21:21;100596.51;;;5.80;82.46
24013;BME280;12220;50.194;18.948;2023-12-14T01:23:22;100601.95;;;5.80;82.51
24013;BME280;12220;50.194;18.948;2023-12-14T01:25:27;100600.18;;;5.79;82.54
24013;BME280;12220;50.194;18.948;2023-12-14T01:27:34;100596.43;;;5.82;82.60
24013;BME280;12220;50.194;18.948;2023-12-14T01:29:36;100603.72;;;5.81;82.59
24013;BME280;12220;50.194;18.948;2023-12-14T01:31:37;100601.00;;;5.81;82.58
24013;BME280;12220;50.194;18.948;2023-12-14T01:33:39;100592.76;;;5.83;82.56
24013;BME280;12220;50.194;18.948;2023-12-14T01:35:49;100596.35;;;5.83;82.54
24013;BME280;12220;50.194;18.948;2023-12-14T01:37:51;100582.77;;;5.83;82.53
24013;BME280;12220;50.194;18.948;2023-12-14T01:39:52;100586.26;;;5.85;82.49
24013;BME280;12220;50.194;18.948;2023-12-14T01:41:53;100584.45;;;5.86;82.47
24013;BME280;12220;50.194;18.948;2023-12-14T01:44:05;100596.18;;;5.86;82.43
24013;BME280;12220;50.194;18.948;2023-12-14T01:46:06;100585.48;;;5.83;82.37
24013;BME280;12220;50.194;18.948;2023-12-14T01:48:07;100585.48;;;5.83;82.31
24013;BME280;12220;50.194;18.948;2023-12-14T01:50:09;100580.21;;;5.80;82.25
24013;BME280;12220;50.194;18.948;2023-12-14T01:52:20;100578.44;;;5.79;82.30
24013;BME280;12220;50.194;18.948;2023-12-14T01:54:21;100580.29;;;5.79;82.31
24013;BME280;12220;50.194;18.948;2023-12-14T01:56:24;100591.25;;;5.77;82.14
24013;BME280;12220;50.194;18.948;2023-12-14T01:58:28;100590.42;;;5.75;82.19
24013;BME280;12220;50.194;18.948;2023-12-14T02:00:42;100584.13;;;5.74;82.32
24013;BME280;12220;50.194;18.948;2023-12-14T02:02:44;100589.65;;;5.73;82.41
24013;BME280;12220;50.194;18.948;2023-12-14T02:04:46;100587.88;;;5.72;82.45
24013;BME280;12220;50.194;18.948;2023-12-14T02:06:47;100580.62;;;5.72;82.47
24013;BME280;12220;50.194;18.948;2023-12-14T02:08:51;100585.08;;;5.73;82.50
24013;BME280;12220;50.194;18.948;2023-12-14T02:10:52;100585.08;;;5.73;82.53
24013;BME280;12220;50.194;18.948;2023-12-14T02:12:53;100581.41;;;5.74;82.52
24013;BME280;12220;50.194;18.948;2023-12-14T02:14:56;100588.61;;;5.75;82.47
24013;BME280;12220;50.194;18.948;2023-12-14T02:17:06;100590.34;;;5.76;82.45
24013;BME280;12220;50.194;18.948;2023-12-14T02:19:07;100592.19;;;5.76;82.45
24013;BME280;12220;50.194;18.948;2023-12-14T02:21:08;100593.15;;;5.75;82.47
24013;BME280;12220;50.194;18.948;2023-12-14T02:23:10;100594.91;;;5.76;82.42
24013;BME280;12220;50.194;18.948;2023-12-14T02:25:22;100594.91;;;5.76;82.37
24013;BME280;12220;50.194;18.948;2023-12-14T02:27:23;100599.57;;;5.74;82.40
24013;BME280;12220;50.194;18.948;2023-12-14T02:29:25;100602.27;;;5.74;82.35
24013;BME280;12220;50.194;18.948;2023-12-14T02:31:26;100604.17;;;5.72;82.39
24013;BME280;12220;50.194;18.948;2023-12-14T02:33:36;100611.37;;;5.73;82.46
24013;BME280;12220;50.194;18.948;2023-12-14T02:35:37;100609.61;;;5.72;82.55
24013;BME280;12220;50.194;18.948;2023-12-14T02:37:40;100604.17;;;5.72;82.61
24013;BME280;12220;50.194;18.948;2023-12-14T02:39:41;100605.95;;;5.73;82.58
24013;BME280;12220;50.194;18.948;2023-12-14T02:41:51;100615.95;;;5.72;82.48
24013;BME280;12220;50.194;18.948;2023-12-14T02:43:52;100619.61;;;5.71;82.40
24013;BME280;12220;50.194;18.948;2023-12-14T02:45:55;100618.73;;;5.71;82.40
24013;BME280;12220;50.194;18.948;2023-12-14T02:48:03;100452.87;;;4.51;82.30
24013;BME280;12220;50.194;18.948;2023-12-14T02:50:06;100615.20;;;5.69;82.47
24013;BME280;12220;50.194;18.948;2023-12-14T02:52:08;100620.64;;;5.69;82.52
24013;BME280;12220;50.194;18.948;2023-12-14T02:54:09;100622.41;;;5.70;82.53
24013;BME280;12220;50.194;18.948;2023-12-14T02:56:10;100628.70;;;5.70;82.46
24013;BME280;12220;50.194;18.948;2023-12-14T02:58:22;100626.94;;;5.69;82.44
24013;BME280;12220;50.194;18.948;2023-12-14T03:00:23;100629.73;;;5.68;82.47
24013;BME280;12220;50.194;18.948;2023-12-14T03:02:25;100636.15;;;5.67;82.54
24013;BME280;12220;50.194;18.948;2023-12-14T03:04:26;100643.32;;;5.68;82.56
24013;BME280;12220;50.194;18.948;2023-12-14T03:06:38;100639.73;;;5.67;82.59
24013;BME280;12220;50.194;18.948;2023-12-14T03:08:39;100641.59;;;5.67;82.59
24013;BME280;12220;50.194;18.948;2023-12-14T03:10:41;100641.50;;;5.68;82.28
24013;BME280;12220;50.194;18.948;2023-12-14T03:12:42;100650.45;;;5.70;82.50
24013;BME280;12220;50.194;18.948;2023-12-14T03:14:53;100656.82;;;5.69;82.36
24013;BME280;12220;50.194;18.948;2023-12-14T03:16:54;100660.60;;;5.67;82.36
24013;BME280;12220;50.194;18.948;2023-12-14T03:18:55;100668.84;;;5.65;82.41
24013;BME280;12220;50.194;18.948;2023-12-14T03:20:57;100657.07;;;5.65;82.49
24013;BME280;12220;50.194;18.948;2023-12-14T03:22:59;100665.22;;;5.65;82.57
24013;BME280;12220;50.194;18.948;2023-12-14T03:25:00;100667.06;;;5.64;82.53
24013;BME280;12220;50.194;18.948;2023-12-14T03:27:02;100665.22;;;5.65;82.52
24013;BME280;12220;50.194;18.948;2023-12-14T03:29:05;100668.84;;;5.65;82.53
24013;BME280;12220;50.194;18.948;2023-12-14T03:31:06;100669.78;;;5.64;82.55
24013;BME280;12220;50.194;18.948;2023-12-14T03:33:08;100680.56;;;5.66;82.57
24013;BME280;12220;50.194;18.948;2023-12-14T03:35:09;100684.16;;;5.66;82.56
24013;BME280;12220;50.194;18.948;2023-12-14T03:37:20;100693.20;;;5.67;82.49
24013;BME280;12220;50.194;18.948;2023-12-14T03:39:22;100686.00;;;5.66;82.46
24013;BME280;12220;50.194;18.948;2023-12-14T03:41:23;100688.65;;;5.67;82.46
24013;BME280;12220;50.194;18.948;2023-12-14T03:43:25;100695.02;;;5.66;82.37
24013;BME280;12220;50.194;18.948;2023-12-14T03:45:35;100692.38;;;5.65;82.38
24013;BME280;12220;50.194;18.948;2023-12-14T03:47:36;100709.58;;;5.65;82.40
24013;BME280;12220;50.194;18.948;2023-12-14T03:49:39;100705.09;;;5.64;82.42
24013;BME280;12220;50.194;18.948;2023-12-14T03:51:40;100699.66;;;5.64;82.42
24013;BME280;12220;50.194;18.948;2023-12-14T03:53:50;100712.46;;;5.62;82.36
24013;BME280;12220;50.194;18.948;2023-12-14T03:55:51;100711.55;;;5.62;82.33
24013;BME280;12220;50.194;18.948;2023-12-14T03:57:53;100709.79;;;5.61;82.35
24013;BME280;12220;50.194;18.948;2023-12-14T03:59:54;100718.01;;;5.59;82.32
24013;BME280;12220;50.194;18.948;2023-12-14T04:02:05;100723.45;;;5.59;82.34
24013;BME280;12220;50.194;18.948;2023-12-14T04:04:06;100728.09;;;5.57;82.38
24013;BME280;12220;50.194;18.948;2023-12-14T04:06:08;100728.09;;;5.57;82.33
24013;BME280;12220;50.194;18.948;2023-12-14T04:08:09;100589.88;;;4.59;82.27
24013;BME280;12220;50.194;18.948;2023-12-14T04:10:20;100734.39;;;5.57;82.45
24013;BME280;12220;50.194;18.948;2023-12-14T04:12:21;100734.47;;;5.56;82.43
24013;BME280;12220;50.194;18.948;2023-12-14T04:14:23;100743.52;;;5.56;82.46
24013;BME280;12220;50.194;18.948;2023-12-14T04:16:24;100743.43;;;5.58;82.42
24013;BME280;12220;50.194;18.948;2023-12-14T04:18:35;100750.77;;;5.56;82.36
24013;BME280;12220;50.194;18.948;2023-12-14T04:20:38;100749.90;;;5.55;82.34
24013;BME280;12220;50.194;18.948;2023-12-14T04:22:39;100749.98;;;5.54;82.35
24013;BME280;12220;50.194;18.948;2023-12-14T04:24:41;100749.02;;;5.55;82.40
24013;BME280;12220;50.194;18.948;2023-12-14T04:26:50;100749.98;;;5.54;82.38
24013;BME280;12220;50.194;18.948;2023-12-14T04:28:51;100754.58;;;5.52;82.34
24013;BME280;12220;50.194;18.948;2023-12-14T04:30:53;100759.14;;;5.51;82.36
24013;BME280;12220;50.194;18.948;2023-12-14T04:32:54;100759.14;;;5.51;82.41
24013;BME280;12220;50.194;18.948;2023-12-14T04:35:06;100762.80;;;5.50;82.42
24013;BME280;12220;50.194;18.948;2023-12-14T04:37:08;100775.45;;;5.51;82.43
24013;BME280;12220;50.194;18.948;2023-12-14T04:39:12;100772.80;;;5.50;82.43
24013;BME280;12220;50.194;18.948;2023-12-14T04:41:13;100771.94;;;5.49;82.45
24013;BME280;12220;50.194;18.948;2023-12-14T04:43:20;100778.23;;;5.50;82.39
24013;BME280;12220;50.194;18.948;2023-12-14T04:45:21;100793.66;;;5.49;82.38
24013;BME280;12220;50.194;18.948;2023-12-14T04:47:23;100791.02;;;5.48;82.32
24013;BME280;12220;50.194;18.948;2023-12-14T04:49:25;100785.66;;;5.46;82.35
24013;BME280;12220;50.194;18.948;2023-12-14T04:51:35;100783.90;;;5.45;82.39
24013;BME280;12220;50.194;18.948;2023-12-14T04:53:37;100793.90;;;5.45;82.47
24013;BME280;12220;50.194;18.948;2023-12-14T04:55:38;100784.84;;;5.44;82.48
24013;BME280;12220;50.194;18.948;2023-12-14T04:57:39;100790.20;;;5.46;82.54
24013;BME280;12220;50.194;18.948;2023-12-14T04:59:50;100791.17;;;5.45;82.64
24013;BME280;12220;50.194;18.948;2023-12-14T05:01:52;100798.34;;;5.46;82.64
24013;BME280;12220;50.194;18.948;2023-12-14T05:03:53;100803.78;;;5.46;82.61
24013;BME280;12220;50.194;18.948;2023-12-14T05:05:54;100809.21;;;5.46;82.65
24013;BME280;12220;50.194;18.948;2023-12-14T05:08:05;100806.41;;;5.47;82.66
24013;BME280;12220;50.194;18.948;2023-12-14T05:10:07;100806.41;;;5.47;82.70
24013;BME280;12220;50.194;18.948;2023-12-14T05:12:10;100808.19;;;5.48;82.73
24013;BME280;12220;50.194;18.948;2023-12-14T05:14:13;100824.41;;;5.50;82.74
24013;BME280;12220;50.194;18.948;2023-12-14T05:16:20;100817.12;;;5.50;82.70
24013;BME280;12220;50.194;18.948;2023-12-14T05:18:22;100827.99;;;5.50;82.69
24013;BME280;12220;50.194;18.948;2023-12-14T05:20:26;100828.98;;;5.49;82.60
24013;BME280;12220;50.194;18.948;2023-12-14T05:22:27;100829.91;;;5.48;82.60
24013;BME280;12220;50.194;18.948;2023-12-14T05:24:35;100835.34;;;5.48;82.67
24013;BME280;12220;50.194;18.948;2023-12-14T05:26:37;100839.91;;;5.48;82.72
24013;BME280;12220;50.194;18.948;2023-12-14T05:28:39;100843.49;;;5.48;82.61
24013;BME280;12220;50.194;18.948;2023-12-14T05:30:40;100845.20;;;5.51;82.73
24013;BME280;12220;50.194;18.948;2023-12-14T05:32:50;100850.70;;;5.49;82.76
24013;BME280;12220;50.194;18.948;2023-12-14T05:34:52;100852.52;;;5.49;82.80
24013;BME280;12220;50.194;18.948;2023-12-14T05:36:53;100855.15;;;5.50;82.82
24013;BME280;12220;50.194;18.948;2023-12-14T05:38:54;100856.92;;;5.51;82.83
24013;BME280;12220;50.194;18.948;2023-12-14T05:41:06;100859.64;;;5.51;82.82
24013;BME280;12220;50.194;18.948;2023-12-14T05:43:07;100868.73;;;5.50;82.74
24013;BME280;12220;50.194;18.948;2023-12-14T05:45:10;100868.81;;;5.49;82.71
24013;BME280;12220;50.194;18.948;2023-12-14T05:47:12;100863.45;;;5.47;82.69
24013;BME280;12220;50.194;18.948;2023-12-14T05:49:21;100869.86;;;5.46;82.75
24013;BME280;12220;50.194;18.948;2023-12-14T05:51:31;100872.58;;;5.46;82.83
24013;BME280;12220;50.194;18.948;2023-12-14T05:53:33;100877.11;;;5.46;82.85
24013;BME280;12220;50.194;18.948;2023-12-14T05:55:41;100878.01;;;5.46;82.91
24013;BME280;12220;50.194;18.948;2023-12-14T05:57:43;100880.65;;;5.48;82.93
24013;BME280;12220;50.194;18.948;2023-12-14T05:59:44;100870.73;;;5.47;82.92
24013;BME280;12220;50.194;18.948;2023-12-14T06:01:45;100876.16;;;5.47;82.84
24013;BME280;12220;50.194;18.948;2023-12-14T06:03:48;100874.38;;;5.46;82.81
24013;BME280;12220;50.194;18.948;2023-12-14T06:05:53;100882.54;;;5.46;82.89
24013;BME280;12220;50.194;18.948;2023-12-14T06:07:55;100883.51;;;5.45;82.92
24013;BME280;12220;50.194;18.948;2023-12-14T06:09:56;100888.95;;;5.45;82.91
24013;BME280;12220;50.194;18.948;2023-12-14T06:11:57;100890.76;;;5.44;82.96
24013;BME280;12220;50.194;18.948;2023-12-14T06:14:08;100889.80;;;5.45;82.97
24013;BME280;12220;50.194;18.948;2023-12-14T06:16:10;100895.32;;;5.44;82.97
24013;BME280;12220;50.194;18.948;2023-12-14T06:18:13;100898.90;;;5.44;83.01
24013;BME280;12220;50.194;18.948;2023-12-14T06:20:14;100904.34;;;5.44;83.01
24013;BME280;12220;50.194;18.948;2023-12-14T06:22:23;100905.24;;;5.45;82.99
24013;BME280;12220;50.194;18.948;2023-12-14T06:24:25;100910.78;;;5.41;82.96
24013;BME280;12220;50.194;18.948;2023-12-14T06:26:26;100907.21;;;5.41;83.25
24013;BME280;12220;50.194;18.948;2023-12-14T06:28:29;100917.12;;;5.42;83.01
24013;BME280;12220;50.194;18.948;2023-12-14T06:30:38;100923.42;;;5.43;83.07
24013;BME280;12220;50.194;18.948;2023-12-14T06:32:41;100921.58;;;5.43;83.14
24013;BME280;12220;50.194;18.948;2023-12-14T06:34:42;100926.06;;;5.44;83.18
24013;BME280;12220;50.194;18.948;2023-12-14T06:36:46;100933.27;;;5.45;83.14
24013;BME280;12220;50.194;18.948;2023-12-14T06:38:53;100925.05;;;5.47;83.12
24013;BME280;12220;50.194;18.948;2023-12-14T06:40:55;100934.07;;;5.47;83.15
24013;BME280;12220;50.194;18.948;2023-12-14T06:42:56;100941.27;;;5.48;83.17
24013;BME280;12220;50.194;18.948;2023-12-14T06:44:59;100939.35;;;5.50;83.19
24013;BME280;12220;50.194;18.948;2023-12-14T06:47:10;100949.27;;;5.51;83.25
24013;BME280;12220;50.194;18.948;2023-12-14T06:49:11;100947.39;;;5.53;83.29
24013;BME280;12220;50.194;18.948;2023-12-14T06:51:13;100950.98;;;5.54;83.27
24013;BME280;12220;50.194;18.948;2023-12-14T06:53:14;100940.92;;;5.56;83.23
24013;BME280;12220;50.194;18.948;2023-12-14T06:55:24;100943.55;;;5.57;83.23
24013;BME280;12220;50.194;18.948;2023-12-14T06:57:25;100949.90;;;5.58;83.22
24013;BME280;12220;50.194;18.948;2023-12-14T06:59:27;100951.63;;;5.59;83.19
24013;BME280;12220;50.194;18.948;2023-12-14T07:01:29;100966.05;;;5.61;83.08
24013;BME280;12220;50.194;18.948;2023-12-14T07:03:42;100957.89;;;5.61;82.90
24013;BME280;12220;50.194;18.948;2023-12-14T07:05:45;100965.29;;;5.57;82.81
24013;BME280;12220;50.194;18.948;2023-12-14T07:07:46;100969.12;;;5.53;82.85
24013;BME280;12220;50.194;18.948;2023-12-14T07:09:47;100973.66;;;5.53;82.97
24013;BME280;12220;50.194;18.948;2023-12-14T07:11:54;100972.78;;;5.52;83.09
24013;BME280;12220;50.194;18.948;2023-12-14T07:13:55;100971.84;;;5.53;83.15
24013;BME280;12220;50.194;18.948;2023-12-14T07:15:57;100972.71;;;5.54;83.20
24013;BME280;12220;50.194;18.948;2023-12-14T07:17:58;100976.23;;;5.56;83.18
24013;BME280;12220;50.194;18.948;2023-12-14T07:20:10;100993.43;;;5.56;82.99
24013;BME280;12220;50.194;18.948;2023-12-14T07:22:12;100994.45;;;5.54;82.96
24013;BME280;12220;50.194;18.948;2023-12-14T07:24:13;100997.16;;;5.54;83.04
24013;BME280;12220;50.194;18.948;2023-12-14T07:26:14;100997.16;;;5.54;83.13
24013;BME280;12220;50.194;18.948;2023-12-14T07:28:24;101001.65;;;5.55;83.22
24013;BME280;12220;50.194;18.948;2023-12-14T07:30:25;100995.24;;;5.56;83.29
24013;BME280;12220;50.194;18.948;2023-12-14T07:32:27;101000.54;;;5.59;83.29
24013;BME280;12220;50.194;18.948;2023-12-14T07:34:28;101002.38;;;5.58;83.29
24013;BME280;12220;50.194;18.948;2023-12-14T07:36:39;101005.90;;;5.61;83.24
24013;BME280;12220;50.194;18.948;2023-12-14T07:38:40;101015.89;;;5.60;83.12
24013;BME280;12220;50.194;18.948;2023-12-14T07:40:42;101020.52;;;5.58;83.12
24013;BME280;12220;50.194;18.948;2023-12-14T07:42:43;101025.96;;;5.58;83.21
24013;BME280;12220;50.194;18.948;2023-12-14T07:44:54;101024.11;;;5.58;83.26
24013;BME280;12220;50.194;18.948;2023-12-14T07:46:56;101027.70;;;5.59;83.24
24013;BME280;12220;50.194;18.948;2023-12-14T07:48:57;101036.75;;;5.59;83.24
24013;BME280;12220;50.194;18.948;2023-12-14T07:50:59;101031.32;;;5.59;83.24
24013;BME280;12220;50.194;18.948;2023-12-14T07:53:09;101036.68;;;5.61;83.29
24013;BME280;12220;50.194;18.948;2023-12-14T07:55:10;101036.68;;;5.61;83.34
24013;BME280;12220;50.194;18.948;2023-12-14T07:57:14;101042.98;;;5.62;83.39
24013;BME280;12220;50.194;18.948;2023-12-14T07:59:18;101039.33;;;5.63;83.34
24013;BME280;12220;50.194;18.948;2023-12-14T08:01:24;101046.54;;;5.64;83.36
24013;BME280;12220;50.194;18.948;2023-12-14T08:03:25;101059.14;;;5.65;83.27
24013;BME280;12220;50.194;18.948;2023-12-14T08:05:26;101062.77;;;5.65;83.09
24013;BME280;12220;50.194;18.948;2023-12-14T08:07:28;101068.27;;;5.64;83.13
24013;BME280;12220;50.194;18.948;2023-12-14T08:09:39;101067.37;;;5.63;83.24
24013;BME280;12220;50.194;18.948;2023-12-14T08:11:40;101070.99;;;5.64;83.24
24013;BME280;12220;50.194;18.948;2023-12-14T08:13:42;101077.36;;;5.63;83.24
24013;BME280;12220;50.194;18.948;2023-12-14T08:15:43;101080.01;;;5.64;83.26
24013;BME280;12220;50.194;18.948;2023-12-14T08:17:54;101079.13;;;5.64;83.29
24013;BME280;12220;50.194;18.948;2023-12-14T08:19:55;101082.72;;;5.64;83.36
24013;BME280;12220;50.194;18.948;2023-12-14T08:21:57;101082.72;;;5.64;83.38
24013;BME280;12220;50.194;18.948;2023-12-14T08:23:58;101094.46;;;5.65;83.30
24013;BME280;12220;50.194;18.948;2023-12-14T08:26:09;101096.31;;;5.64;83.21
24013;BME280;12220;50.194;18.948;2023-12-14T08:28:14;101096.39;;;5.63;83.18
24013;BME280;12220;50.194;18.948;2023-12-14T08:30:15;101096.39;;;5.63;83.29
24013;BME280;12220;50.194;18.948;2023-12-14T08:32:17;101095.52;;;5.62;83.36
24013;BME280;12220;50.194;18.948;2023-12-14T08:34:28;101097.25;;;5.63;83.36
24013;BME280;12220;50.194;18.948;2023-12-14T08:36:29;101099.91;;;5.65;83.43
24013;BME280;12220;50.194;18.948;2023-12-14T08:38:32;101104.39;;;5.66;83.36
24013;BME280;12220;50.194;18.948;2023-12-14T08:40:33;101106.17;;;5.67;83.41
24013;BME280;12220;50.194;18.948;2023-12-14T08:42:41;101107.91;;;5.68;83.47
24013;BME280;12220;50.194;18.948;2023-12-14T08:44:42;101115.99;;;5.69;83.46
24013;BME280;12220;50.194;18.948;2023-12-14T08:46:46;101120.55;;;5.69;83.36
24013;BME280;12220;50.194;18.948;2023-12-14T08:48:47;101126.93;;;5.68;83.42
24013;BME280;12220;50.194;18.948;2023-12-14T08:50:57;101126.05;;;5.67;83.52
24013;BME280;12220;50.194;18.948;2023-12-14T08:52:58;101131.42;;;5.69;83.61
24013;BME280;12220;50.194;18.948;2023-12-14T08:55:00;101141.29;;;5.71;83.61
24013;BME280;12220;50.194;18.948;2023-12-14T08:57:03;101149.37;;;5.73;83.59
24013;BME280;12220;50.194;18.948;2023-12-14T08:59:12;101150.17;;;5.75;83.55
24013;BME280;12220;50.194;18.948;2023-12-14T09:01:21;101161.04;;;5.75;83.50
24013;BME280;12220;50.194;18.948;2023-12-14T09:03:23;101160.11;;;5.76;83.48
24013;BME280;12220;50.194;18.948;2023-12-14T09:05:24;101155.54;;;5.76;83.50
24013;BME280;12220;50.194;18.948;2023-12-14T09:07:28;101165.47;;;5.78;83.51
24013;BME280;12220;50.194;18.948;2023-12-14T09:09:29;101168.18;;;5.78;83.50
24013;BME280;12220;50.194;18.948;2023-12-14T09:11:31;101164.66;;;5.75;83.40
24013;BME280;12220;50.194;18.948;2023-12-14T09:13:32;101166.41;;;5.76;83.46
24013;BME280;12220;50.194;18.948;2023-12-14T09:15:43;101161.88;;;5.77;83.50
24013;BME280;12220;50.194;18.948;2023-12-14T09:17:45;101168.26;;;5.76;83.47
24013;BME280;12220;50.194;18.948;2023-12-14T09:19:46;101176.41;;;5.76;83.51
24013;BME280;12220;50.194;18.948;2023-12-14T09:21:47;101178.18;;;5.77;83.60
24013;BME280;12220;50.194;18.948;2023-12-14T09:23:59;101174.56;;;5.76;83.65
24013;BME280;12220;50.194;18.948;2023-12-14T09:26:00;101172.75;;;5.77;83.60
24013;BME280;12220;50.194;18.948;2023-12-14T09:28:01;101179.92;;;5.78;83.65
24013;BME280;12220;50.194;18.948;2023-12-14T09:30:03;101179.90;;;5.80;83.66
24013;BME280;12220;50.194;18.948;2023-12-14T09:32:14;101180.83;;;5.79;83.64
24013;BME280;12220;50.194;18.948;2023-12-14T09:34:15;101179.90;;;5.80;83.56
24013;BME280;12220;50.194;18.948;2023-12-14T09:36:18;101187.14;;;5.79;83.55
24013;BME280;12220;50.194;18.948;2023-12-14T09:38:19;101186.27;;;5.79;83.53
24013;BME280;12220;50.194;18.948;2023-12-14T09:40:29;101188.05;;;5.80;83.52
24013;BME280;12220;50.194;18.948;2023-12-14T09:42:36;101187.14;;;5.79;83.57
24013;BME280;12220;50.194;18.948;2023-12-14T09:44:39;101189.86;;;5.79;83.54
24013;BME280;12220;50.194;18.948;2023-12-14T09:46:41;101185.36;;;5.78;83.52
24013;BME280;12220;50.194;18.948;2023-12-14T09:48:50;101200.73;;;5.79;83.51
24013;BME280;12220;50.194;18.948;2023-12-14T09:50:52;101195.30;;;5.79;83.53
24013;BME280;12220;50.194;18.948;2023-12-14T09:52:53;101196.23;;;5.78;83.54
24013;BME280;12220;50.194;18.948;2023-12-14T09:54:54;101196.20;;;5.80;83.56
24013;BME280;12220;50.194;18.948;2023-12-14T09:56:59;101204.28;;;5.81;83.54
24013;BME280;12220;50.194;18.948;2023-12-14T09:59:01;101211.54;;;5.81;83.49
24013;BME280;12220;50.194;18.948;2023-12-14T10:03:21;101214.31;;;5.79;83.52
24013;BME280;12220;50.194;18.948;2023-12-14T10:05:24;101204.38;;;5.78;83.53
24013;BME280;12220;50.194;18.948;2023-12-14T10:07:41;101203.51;;;5.78;83.57
24013;BME280;12220;50.194;18.948;2023-12-14T10:09:44;101218.04;;;5.76;83.59
24013;BME280;12220;50.194;18.948;2023-12-14T10:11:46;101220.83;;;5.75;83.62
24013;BME280;12220;50.194;18.948;2023-12-14T10:13:48;101208.21;;;5.74;83.63
24013;BME280;12220;50.194;18.948;2023-12-14T10:15:51;101209.14;;;5.73;83.64
24013;BME280;12220;50.194;18.948;2023-12-14T10:17:53;101210.09;;;5.72;83.67
24013;BME280;12220;50.194;18.948;2023-12-14T10:19:55;101213.71;;;5.72;83.69
24013;BME280;12220;50.194;18.948;2023-12-14T10:21:57;101219.14;;;5.72;83.62
24013;BME280;12220;50.194;18.948;2023-12-14T10:24:06;101221.86;;;5.72;83.62
24013;BME280;12220;50.194;18.948;2023-12-14T10:26:08;101227.36;;;5.71;83.68
24013;BME280;12220;50.194;18.948;2023-12-14T10:28:15;101212.81;;;5.72;83.73
24013;BME280;12220;50.194;18.948;2023-12-14T10:30:18;101221.94;;;5.71;83.76
24013;BME280;12220;50.194;18.948;2023-12-14T10:32:21;101216.49;;;5.71;83.75
24013;BME280;12220;50.194;18.948;2023-12-14T10:34:24;101217.43;;;5.70;83.51
24013;BME280;12220;50.194;18.948;2023-12-14T10:36:26;101230.02;;;5.72;83.88
24013;BME280;12220;50.194;18.948;2023-12-14T10:38:32;101225.38;;;5.74;83.94
24013;BME280;12220;50.194;18.948;2023-12-14T10:40:37;101218.95;;;5.77;83.97
24013;BME280;12220;50.194;18.948;2023-12-14T10:42:44;101234.28;;;5.78;83.95
24013;BME280;12220;50.194;18.948;2023-12-14T10:44:48;101236.05;;;5.79;83.92
24013;BME280;12220;50.194;18.948;2023-12-14T10:46:58;101233.27;;;5.81;83.89
24013;BME280;12220;50.194;18.948;2023-12-14T10:49:01;101242.26;;;5.83;83.91